sensor_id;sensor_type;location;lat;lon;timestamp;temperature;humidity
64032;DHT22;50278;47.796;11.968;2023-02-05T00:00:24;-0.80;118.99
64032;DHT22;50278;47.796;11.968;2023-02-05T00:02:50;-0.74;118.99
64032;DHT22;50278;47.796;11.968;2023-02-05T00:05:15;-0.74;118.99
64032;DHT22;50278;47.796;11.968;2023-02-05T00:07:41;-0.69;118.99
64032;DHT22;50278;47.796;11.968;2023-02-05T00:10:06;-0.64;118.99
64032;DHT22;50278;47.796;11.968;2023-02-05T00:12:32;-0.66;118.99
64032;DHT22;50278;47.796;11.968;2023-02-05T00:14:58;-0.61;118.99
64032;DHT22;50278;47.796;11.968;2023-02-05T00:17:23;-0.61;118.99
64032;DHT22;50278;47.796;11.968;2023-02-05T00:19:49;-0.66;118.99
64032;DHT22;50278;47.796;11.968;2023-02-05T00:22:14;-0.75;118.99
64032;DHT22;50278;47.796;11.968;2023-02-05T00:24:40;-0.84;118.99
64032;DHT22;50278;47.796;11.968;2023-02-05T00:27:06;-0.95;118.99
64032;DHT22;50278;47.796;11.968;2023-02-05T00:29:31;-0.97;118.99
64032;DHT22;50278;47.796;11.968;2023-02-05T00:31:59;-1.00;118.99
64032;DHT22;50278;47.796;11.968;2023-02-05T00:34:24;-1.04;118.99
64032;DHT22;50278;47.796;11.968;2023-02-05T00:36:50;-1.05;118.99
64032;DHT22;50278;47.796;11.968;2023-02-05T00:39:15;-1.10;118.99
64032;DHT22;50278;47.796;11.968;2023-02-05T00:41:41;-1.17;118.99
64032;DHT22;50278;47.796;11.968;2023-02-05T00:44:06;-1.19;118.99
64032;DHT22;50278;47.796;11.968;2023-02-05T00:46:32;-1.26;118.99
64032;DHT22;50278;47.796;11.968;2023-02-05T00:48:57;-1.21;118.99
64032;DHT22;50278;47.796;11.968;2023-02-05T00:51:23;-1.19;118.99
64032;DHT22;50278;47.796;11.968;2023-02-05T00:53:49;-1.28;118.99
64032;DHT22;50278;47.796;11.968;2023-02-05T00:56:14;-1.34;118.99
64032;DHT22;50278;47.796;11.968;2023-02-05T00:58:40;-1.41;118.99
64032;DHT22;50278;47.796;11.968;2023-02-05T01:01:12;-1.46;118.99
64032;DHT22;50278;47.796;11.968;2023-02-05T01:03:39;-1.40;118.99
64032;DHT22;50278;47.796;11.968;2023-02-05T01:06:05;-1.32;118.99
64032;DHT22;50278;47.796;11.968;2023-02-05T01:08:31;-1.35;118.99
64032;DHT22;50278;47.796;11.968;2023-02-05T01:10:56;-1.38;118.99
64032;DHT22;50278;47.796;11.968;2023-02-05T01:13:22;-1.39;118.99
64032;DHT22;50278;47.796;11.968;2023-02-05T01:15:48;-1.35;118.99
64032;DHT22;50278;47.796;11.968;2023-02-05T01:18:13;-1.29;118.99
64032;DHT22;50278;47.796;11.968;2023-02-05T01:20:40;-1.20;118.99
64032;DHT22;50278;47.796;11.968;2023-02-05T01:23:06;-1.23;118.99
64032;DHT22;50278;47.796;11.968;2023-02-05T01:25:32;-1.21;118.99
64032;DHT22;50278;47.796;11.968;2023-02-05T01:27:57;-1.18;118.99
64032;DHT22;50278;47.796;11.968;2023-02-05T01:30:23;-1.10;118.99
64032;DHT22;50278;47.796;11.968;2023-02-05T01:32:49;-0.99;118.99
64032;DHT22;50278;47.796;11.968;2023-02-05T01:35:14;-0.90;118.99
64032;DHT22;50278;47.796;11.968;2023-02-05T01:37:40;-0.90;118.99
64032;DHT22;50278;47.796;11.968;2023-02-05T01:40:05;-0.90;118.99
64032;DHT22;50278;47.796;11.968;2023-02-05T01:42:32;-0.84;118.99
64032;DHT22;50278;47.796;11.968;2023-02-05T01:47:58;-0.72;118.99
64032;DHT22;50278;47.796;11.968;2023-02-05T01:50:34;-0.70;118.99
64032;DHT22;50278;47.796;11.968;2023-02-05T01:53:05;-0.69;118.99
64032;DHT22;50278;47.796;11.968;2023-02-05T01:55:31;-0.70;118.99
64032;DHT22;50278;47.796;11.968;2023-02-05T01:58:00;-0.76;118.99
64032;DHT22;50278;47.796;11.968;2023-02-05T02:00:26;-0.76;118.99
64032;DHT22;50278;47.796;11.968;2023-02-05T02:02:52;-0.74;118.99
64032;DHT22;50278;47.796;11.968;2023-02-05T02:05:18;-0.80;118.99
64032;DHT22;50278;47.796;11.968;2023-02-05T02:07:44;-0.83;118.99
64032;DHT22;50278;47.796;11.968;2023-02-05T02:10:12;-0.85;118.99
64032;DHT22;50278;47.796;11.968;2023-02-05T02:12:40;-0.84;118.99
64032;DHT22;50278;47.796;11.968;2023-02-05T02:15:16;-0.85;118.99
64032;DHT22;50278;47.796;11.968;2023-02-05T02:17:45;-0.84;118.99
64032;DHT22;50278;47.796;11.968;2023-02-05T02:20:15;-0.81;118.99
64032;DHT22;50278;47.796;11.968;2023-02-05T02:23:06;-0.82;118.99
64032;DHT22;50278;47.796;11.968;2023-02-05T02:25:47;-0.79;118.99
64032;DHT22;50278;47.796;11.968;2023-02-05T02:31:12;-0.66;118.99
64032;DHT22;50278;47.796;11.968;2023-02-05T02:39:15;-0.60;118.99
64032;DHT22;50278;47.796;11.968;2023-02-05T02:41:51;-0.56;118.99
64032;DHT22;50278;47.796;11.968;2023-02-05T02:44:59;-0.54;118.99
64032;DHT22;50278;47.796;11.968;2023-02-05T02:47:21;-0.53;118.99
64032;DHT22;50278;47.796;11.968;2023-02-05T02:49:54;-0.49;118.99
64032;DHT22;50278;47.796;11.968;2023-02-05T02:52:22;-0.37;118.99
64032;DHT22;50278;47.796;11.968;2023-02-05T02:54:51;-0.34;118.99
64032;DHT22;50278;47.796;11.968;2023-02-05T02:57:22;-0.39;118.99
64032;DHT22;50278;47.796;11.968;2023-02-05T02:59:51;-0.42;118.99
64032;DHT22;50278;47.796;11.968;2023-02-05T03:02:18;-0.49;118.99
64032;DHT22;50278;47.796;11.968;2023-02-05T03:04:48;-0.50;118.99
64032;DHT22;50278;47.796;11.968;2023-02-05T03:07:53;-0.61;118.99
64032;DHT22;50278;47.796;11.968;2023-02-05T03:10:35;-0.73;118.99
64032;DHT22;50278;47.796;11.968;2023-02-05T03:13:01;-0.91;118.99
64032;DHT22;50278;47.796;11.968;2023-02-05T03:15:28;-1.05;118.99
64032;DHT22;50278;47.796;11.968;2023-02-05T03:17:54;-1.17;118.99
64032;DHT22;50278;47.796;11.968;2023-02-05T03:20:42;-1.24;118.99
64032;DHT22;50278;47.796;11.968;2023-02-05T03:23:09;-1.34;118.99
64032;DHT22;50278;47.796;11.968;2023-02-05T03:25:34;-1.44;118.99
64032;DHT22;50278;47.796;11.968;2023-02-05T03:28:01;-1.58;118.99
64032;DHT22;50278;47.796;11.968;2023-02-05T03:30:38;-1.63;118.99
64032;DHT22;50278;47.796;11.968;2023-02-05T03:47:20;-2.14;118.99
64032;DHT22;50278;47.796;11.968;2023-02-05T03:49:59;-2.07;118.99
64032;DHT22;50278;47.796;11.968;2023-02-05T03:52:32;-2.19;118.99
64032;DHT22;50278;47.796;11.968;2023-02-05T03:55:08;-2.20;118.99
64032;DHT22;50278;47.796;11.968;2023-02-05T03:57:43;-2.08;118.99
64032;DHT22;50278;47.796;11.968;2023-02-05T04:00:14;-2.16;118.99
64032;DHT22;50278;47.796;11.968;2023-02-05T04:02:40;-2.20;118.99
64032;DHT22;50278;47.796;11.968;2023-02-05T04:05:08;-2.20;118.99
64032;DHT22;50278;47.796;11.968;2023-02-05T04:07:33;-2.36;118.99
64032;DHT22;50278;47.796;11.968;2023-02-05T04:10:00;-2.34;118.99
64032;DHT22;50278;47.796;11.968;2023-02-05T04:12:27;-2.21;118.99
64032;DHT22;50278;47.796;11.968;2023-02-05T04:14:53;-2.28;118.99
64032;DHT22;50278;47.796;11.968;2023-02-05T04:17:18;-2.47;118.99
64032;DHT22;50278;47.796;11.968;2023-02-05T04:19:45;-2.45;118.99
64032;DHT22;50278;47.796;11.968;2023-02-05T04:22:12;-2.51;118.99
64032;DHT22;50278;47.796;11.968;2023-02-05T04:24:41;-2.50;118.99
64032;DHT22;50278;47.796;11.968;2023-02-05T04:27:08;-2.52;118.99
64032;DHT22;50278;47.796;11.968;2023-02-05T04:29:34;-2.37;118.99
64032;DHT22;50278;47.796;11.968;2023-02-05T04:31:59;-2.36;118.99
64032;DHT22;50278;47.796;11.968;2023-02-05T04:34:25;-2.19;118.99
64032;DHT22;50278;47.796;11.968;2023-02-05T04:36:51;-2.08;118.99
64032;DHT22;50278;47.796;11.968;2023-02-05T04:39:17;-2.12;118.99
64032;DHT22;50278;47.796;11.968;2023-02-05T04:41:42;-2.08;118.99
64032;DHT22;50278;47.796;11.968;2023-02-05T04:44:08;-2.02;118.99
64032;DHT22;50278;47.796;11.968;2023-02-05T04:46:33;-1.95;118.99
64032;DHT22;50278;47.796;11.968;2023-02-05T04:48:59;-1.99;118.99
64032;DHT22;50278;47.796;11.968;2023-02-05T04:51:25;-1.99;118.99
64032;DHT22;50278;47.796;11.968;2023-02-05T04:53:51;-2.04;118.99
64032;DHT22;50278;47.796;11.968;2023-02-05T04:56:17;-2.06;118.99
64032;DHT22;50278;47.796;11.968;2023-02-05T04:58:43;-2.08;118.99
64032;DHT22;50278;47.796;11.968;2023-02-05T05:01:17;-2.17;118.99
64032;DHT22;50278;47.796;11.968;2023-02-05T05:03:43;-2.18;118.99
64032;DHT22;50278;47.796;11.968;2023-02-05T05:06:09;-2.14;118.99
64032;DHT22;50278;47.796;11.968;2023-02-05T05:08:35;-2.30;118.99
64032;DHT22;50278;47.796;11.968;2023-02-05T05:11:09;-2.29;118.99
64032;DHT22;50278;47.796;11.968;2023-02-05T05:13:35;-2.28;118.99
64032;DHT22;50278;47.796;11.968;2023-02-05T05:16:01;-2.24;118.99
64032;DHT22;50278;47.796;11.968;2023-02-05T05:18:27;-2.29;118.99
64032;DHT22;50278;47.796;11.968;2023-02-05T05:20:52;-2.16;118.99
64032;DHT22;50278;47.796;11.968;2023-02-05T05:23:18;-2.08;118.99
64032;DHT22;50278;47.796;11.968;2023-02-05T05:25:45;-1.92;118.99
64032;DHT22;50278;47.796;11.968;2023-02-05T05:28:12;-1.94;118.99
64032;DHT22;50278;47.796;11.968;2023-02-05T05:30:38;-2.00;118.99
64032;DHT22;50278;47.796;11.968;2023-02-05T05:33:05;-1.95;118.99
64032;DHT22;50278;47.796;11.968;2023-02-05T05:35:30;-1.92;118.99
64032;DHT22;50278;47.796;11.968;2023-02-05T05:37:57;-1.94;118.99
64032;DHT22;50278;47.796;11.968;2023-02-05T05:40:23;-1.90;118.99
64032;DHT22;50278;47.796;11.968;2023-02-05T05:43:18;-1.95;118.99
64032;DHT22;50278;47.796;11.968;2023-02-05T05:46:03;-2.00;118.99
64032;DHT22;50278;47.796;11.968;2023-02-05T05:48:29;-2.02;118.99
64032;DHT22;50278;47.796;11.968;2023-02-05T05:50:55;-2.05;118.99
64032;DHT22;50278;47.796;11.968;2023-02-05T05:53:21;-2.03;118.99
64032;DHT22;50278;47.796;11.968;2023-02-05T05:55:46;-1.95;118.99
64032;DHT22;50278;47.796;11.968;2023-02-05T05:58:13;-1.97;118.99
64032;DHT22;50278;47.796;11.968;2023-02-05T06:00:39;-1.94;118.99
64032;DHT22;50278;47.796;11.968;2023-02-05T06:03:05;-1.95;118.99
64032;DHT22;50278;47.796;11.968;2023-02-05T06:05:31;-1.97;118.99
64032;DHT22;50278;47.796;11.968;2023-02-05T06:07:57;-1.93;118.99
64032;DHT22;50278;47.796;11.968;2023-02-05T06:10:23;-1.91;118.99
64032;DHT22;50278;47.796;11.968;2023-02-05T06:12:48;-1.94;118.99
64032;DHT22;50278;47.796;11.968;2023-02-05T06:15:15;-1.94;118.99
64032;DHT22;50278;47.796;11.968;2023-02-05T06:17:41;-1.94;118.99
64032;DHT22;50278;47.796;11.968;2023-02-05T06:20:07;-1.95;118.99
64032;DHT22;50278;47.796;11.968;2023-02-05T06:22:34;-1.97;118.99
64032;DHT22;50278;47.796;11.968;2023-02-05T06:24:59;-1.97;118.99
64032;DHT22;50278;47.796;11.968;2023-02-05T06:27:26;-1.86;118.99
64032;DHT22;50278;47.796;11.968;2023-02-05T06:29:52;-1.82;118.99
64032;DHT22;50278;47.796;11.968;2023-02-05T06:32:17;-1.78;118.99
64032;DHT22;50278;47.796;11.968;2023-02-05T06:34:43;-1.74;118.99
64032;DHT22;50278;47.796;11.968;2023-02-05T06:37:08;-1.72;118.99
64032;DHT22;50278;47.796;11.968;2023-02-05T06:39:34;-1.70;118.99
64032;DHT22;50278;47.796;11.968;2023-02-05T06:42:00;-1.63;118.99
64032;DHT22;50278;47.796;11.968;2023-02-05T06:44:25;-1.64;118.99
64032;DHT22;50278;47.796;11.968;2023-02-05T06:46:51;-1.59;118.99
64032;DHT22;50278;47.796;11.968;2023-02-05T06:49:16;-1.56;118.99
64032;DHT22;50278;47.796;11.968;2023-02-05T06:51:42;-1.46;118.99
64032;DHT22;50278;47.796;11.968;2023-02-05T06:54:07;-1.32;118.99
64032;DHT22;50278;47.796;11.968;2023-02-05T06:56:33;-1.34;118.99
64032;DHT22;50278;47.796;11.968;2023-02-05T06:58:58;-1.30;118.99
64032;DHT22;50278;47.796;11.968;2023-02-05T07:01:24;-1.26;118.99
64032;DHT22;50278;47.796;11.968;2023-02-05T07:03:49;-1.19;118.99
64032;DHT22;50278;47.796;11.968;2023-02-05T07:06:20;-1.10;118.99
64032;DHT22;50278;47.796;11.968;2023-02-05T07:08:45;-1.08;118.99
64032;DHT22;50278;47.796;11.968;2023-02-05T07:11:12;-1.01;118.99
64032;DHT22;50278;47.796;11.968;2023-02-05T07:13:37;-0.97;118.99
64032;DHT22;50278;47.796;11.968;2023-02-05T07:16:03;-0.89;118.99
64032;DHT22;50278;47.796;11.968;2023-02-05T07:18:29;-0.87;118.99
64032;DHT22;50278;47.796;11.968;2023-02-05T07:20:54;-0.89;118.99
64032;DHT22;50278;47.796;11.968;2023-02-05T07:23:20;-0.95;118.99
64032;DHT22;50278;47.796;11.968;2023-02-05T07:25:45;-0.93;118.99
64032;DHT22;50278;47.796;11.968;2023-02-05T07:28:11;-0.99;118.99
64032;DHT22;50278;47.796;11.968;2023-02-05T07:30:36;-1.00;118.99
64032;DHT22;50278;47.796;11.968;2023-02-05T07:33:02;-1.06;118.99
64032;DHT22;50278;47.796;11.968;2023-02-05T07:35:29;-1.09;118.99
64032;DHT22;50278;47.796;11.968;2023-02-05T07:37:55;-1.10;118.99
64032;DHT22;50278;47.796;11.968;2023-02-05T07:40:21;-1.11;118.99
64032;DHT22;50278;47.796;11.968;2023-02-05T07:42:46;-1.09;118.99
64032;DHT22;50278;47.796;11.968;2023-02-05T07:45:12;-0.99;118.99
64032;DHT22;50278;47.796;11.968;2023-02-05T07:47:37;-0.97;118.99
64032;DHT22;50278;47.796;11.968;2023-02-05T07:50:03;-0.94;118.99
64032;DHT22;50278;47.796;11.968;2023-02-05T07:52:31;-0.86;118.99
64032;DHT22;50278;47.796;11.968;2023-02-05T07:54:56;-0.71;118.99
64032;DHT22;50278;47.796;11.968;2023-02-05T07:57:22;-0.58;118.99
64032;DHT22;50278;47.796;11.968;2023-02-05T07:59:48;-0.44;118.99
64032;DHT22;50278;47.796;11.968;2023-02-05T08:02:13;-0.30;118.99
64032;DHT22;50278;47.796;11.968;2023-02-05T08:04:39;-0.31;118.99
64032;DHT22;50278;47.796;11.968;2023-02-05T08:07:05;-0.17;118.99
64032;DHT22;50278;47.796;11.968;2023-02-05T08:09:31;-0.05;118.99
64032;DHT22;50278;47.796;11.968;2023-02-05T08:11:56;-0.00;118.99
64032;DHT22;50278;47.796;11.968;2023-02-05T08:14:22;0.02;118.99
64032;DHT22;50278;47.796;11.968;2023-02-05T08:16:47;0.14;118.99
64032;DHT22;50278;47.796;11.968;2023-02-05T08:19:15;0.23;118.99
64032;DHT22;50278;47.796;11.968;2023-02-05T08:21:41;0.25;118.99
64032;DHT22;50278;47.796;11.968;2023-02-05T08:24:07;0.31;118.99
64032;DHT22;50278;47.796;11.968;2023-02-05T08:26:33;0.40;118.99
64032;DHT22;50278;47.796;11.968;2023-02-05T08:28:58;0.47;118.99
64032;DHT22;50278;47.796;11.968;2023-02-05T08:31:24;0.40;118.99
64032;DHT22;50278;47.796;11.968;2023-02-05T08:33:50;0.59;118.99
64032;DHT22;50278;47.796;11.968;2023-02-05T08:36:19;0.53;118.99
64032;DHT22;50278;47.796;11.968;2023-02-05T08:38:45;0.75;118.99
64032;DHT22;50278;47.796;11.968;2023-02-05T08:41:11;0.60;118.57
64032;DHT22;50278;47.796;11.968;2023-02-05T08:43:41;0.67;117.58
64032;DHT22;50278;47.796;11.968;2023-02-05T08:46:08;0.63;114.67
64032;DHT22;50278;47.796;11.968;2023-02-05T08:48:34;0.62;112.54
64032;DHT22;50278;47.796;11.968;2023-02-05T08:50:59;0.64;118.99
64032;DHT22;50278;47.796;11.968;2023-02-05T08:53:25;0.74;118.99
64032;DHT22;50278;47.796;11.968;2023-02-05T08:55:59;0.77;114.77
64032;DHT22;50278;47.796;11.968;2023-02-05T08:58:25;0.77;110.80
64032;DHT22;50278;47.796;11.968;2023-02-05T09:00:51;0.86;105.51
64032;DHT22;50278;47.796;11.968;2023-02-05T09:03:17;1.02;103.53
64032;DHT22;50278;47.796;11.968;2023-02-05T09:05:42;1.02;101.77
64032;DHT22;50278;47.796;11.968;2023-02-05T09:08:08;1.04;90.73
64032;DHT22;50278;47.796;11.968;2023-02-05T09:10:34;1.26;93.89
64032;DHT22;50278;47.796;11.968;2023-02-05T09:12:59;1.25;87.66
64032;DHT22;50278;47.796;11.968;2023-02-05T09:15:25;1.20;88.93
64032;DHT22;50278;47.796;11.968;2023-02-05T09:17:50;1.49;84.27
64032;DHT22;50278;47.796;11.968;2023-02-05T09:20:16;1.56;85.16
64032;DHT22;50278;47.796;11.968;2023-02-05T09:22:42;1.79;86.06
64032;DHT22;50278;47.796;11.968;2023-02-05T09:25:08;2.10;84.29
64032;DHT22;50278;47.796;11.968;2023-02-05T09:27:33;2.30;81.70
64032;DHT22;50278;47.796;11.968;2023-02-05T09:29:59;2.45;75.47
64032;DHT22;50278;47.796;11.968;2023-02-05T09:32:25;2.66;75.83
64032;DHT22;50278;47.796;11.968;2023-02-05T09:34:50;2.71;74.00
64032;DHT22;50278;47.796;11.968;2023-02-05T09:37:16;3.02;74.31
64032;DHT22;50278;47.796;11.968;2023-02-05T09:39:42;2.99;74.25
64032;DHT22;50278;47.796;11.968;2023-02-05T09:42:44;3.23;69.58
64032;DHT22;50278;47.796;11.968;2023-02-05T09:50:55;3.92;71.00
64032;DHT22;50278;47.796;11.968;2023-02-05T09:53:21;3.88;66.38
64032;DHT22;50278;47.796;11.968;2023-02-05T09:55:47;3.61;68.13
64032;DHT22;50278;47.796;11.968;2023-02-05T09:58:20;3.69;65.03
64032;DHT22;50278;47.796;11.968;2023-02-05T10:01:11;3.69;63.92
64032;DHT22;50278;47.796;11.968;2023-02-05T10:03:43;3.62;64.60
64032;DHT22;50278;47.796;11.968;2023-02-05T10:11:26;3.72;65.37
64032;DHT22;50278;47.796;11.968;2023-02-05T10:20:24;3.50;62.86
64032;DHT22;50278;47.796;11.968;2023-02-05T10:23:09;3.56;61.29
64032;DHT22;50278;47.796;11.968;2023-02-05T10:31:41;4.00;57.44
64032;DHT22;50278;47.796;11.968;2023-02-05T10:36:32;4.21;55.11
64032;DHT22;50278;47.796;11.968;2023-02-05T10:38:58;4.39;54.34
64032;DHT22;50278;47.796;11.968;2023-02-05T10:44:11;3.82;57.38
64032;DHT22;50278;47.796;11.968;2023-02-05T10:46:40;4.12;56.94
64032;DHT22;50278;47.796;11.968;2023-02-05T10:51:50;4.22;53.04
64032;DHT22;50278;47.796;11.968;2023-02-05T10:54:31;4.61;49.66
64032;DHT22;50278;47.796;11.968;2023-02-05T10:57:01;4.50;48.99
64032;DHT22;50278;47.796;11.968;2023-02-05T10:59:29;4.35;50.63
64032;DHT22;50278;47.796;11.968;2023-02-05T11:01:57;4.59;49.43
64032;DHT22;50278;47.796;11.968;2023-02-05T11:04:37;4.32;50.16
64032;DHT22;50278;47.796;11.968;2023-02-05T11:07:03;4.28;50.98
64032;DHT22;50278;47.796;11.968;2023-02-05T11:09:34;4.38;49.07
64032;DHT22;50278;47.796;11.968;2023-02-05T11:14:36;4.75;49.04
64032;DHT22;50278;47.796;11.968;2023-02-05T11:17:22;4.61;47.86
64032;DHT22;50278;47.796;11.968;2023-02-05T11:19:54;4.53;51.87
64032;DHT22;50278;47.796;11.968;2023-02-05T11:22:34;4.72;50.27
64032;DHT22;50278;47.796;11.968;2023-02-05T11:25:20;4.86;50.38
64032;DHT22;50278;47.796;11.968;2023-02-05T11:27:57;4.83;47.63
64032;DHT22;50278;47.796;11.968;2023-02-05T11:30:43;4.63;48.61
64032;DHT22;50278;47.796;11.968;2023-02-05T11:36:02;4.71;48.21
64032;DHT22;50278;47.796;11.968;2023-02-05T11:38:53;4.44;47.74
64032;DHT22;50278;47.796;11.968;2023-02-05T11:41:29;5.01;44.20
64032;DHT22;50278;47.796;11.968;2023-02-05T11:43:58;4.95;46.01
64032;DHT22;50278;47.796;11.968;2023-02-05T11:46:26;5.09;46.73
64032;DHT22;50278;47.796;11.968;2023-02-05T11:54:22;6.02;41.46
64032;DHT22;50278;47.796;11.968;2023-02-05T11:57:04;6.09;47.93
64032;DHT22;50278;47.796;11.968;2023-02-05T11:59:30;6.14;44.86
64032;DHT22;50278;47.796;11.968;2023-02-05T12:04:51;5.55;42.93
64032;DHT22;50278;47.796;11.968;2023-02-05T12:07:21;5.94;41.08
64032;DHT22;50278;47.796;11.968;2023-02-05T12:09:47;5.87;39.92
64032;DHT22;50278;47.796;11.968;2023-02-05T12:12:31;6.04;40.78
64032;DHT22;50278;47.796;11.968;2023-02-05T12:15:23;5.81;42.57
64032;DHT22;50278;47.796;11.968;2023-02-05T12:26:28;5.77;38.55
64032;DHT22;50278;47.796;11.968;2023-02-05T12:34:34;6.05;37.82
64032;DHT22;50278;47.796;11.968;2023-02-05T12:37:24;6.14;34.57
64032;DHT22;50278;47.796;11.968;2023-02-05T12:40:00;5.84;35.90
64032;DHT22;50278;47.796;11.968;2023-02-05T12:43:05;5.90;32.14
64032;DHT22;50278;47.796;11.968;2023-02-05T12:48:14;5.13;31.40
64032;DHT22;50278;47.796;11.968;2023-02-05T12:50:55;5.35;31.16
64032;DHT22;50278;47.796;11.968;2023-02-05T12:58:45;4.71;32.38
64032;DHT22;50278;47.796;11.968;2023-02-05T13:01:19;4.62;31.83
64032;DHT22;50278;47.796;11.968;2023-02-05T13:03:57;4.68;33.85
64032;DHT22;50278;47.796;11.968;2023-02-05T13:09:18;4.58;31.19
64032;DHT22;50278;47.796;11.968;2023-02-05T13:11:52;4.64;31.00
64032;DHT22;50278;47.796;11.968;2023-02-05T13:14:24;4.59;31.75
64032;DHT22;50278;47.796;11.968;2023-02-05T13:21:49;4.80;32.04
64032;DHT22;50278;47.796;11.968;2023-02-05T13:24:44;4.88;31.24
64032;DHT22;50278;47.796;11.968;2023-02-05T13:27:35;4.89;30.42
64032;DHT22;50278;47.796;11.968;2023-02-05T13:30:25;5.04;27.51
64032;DHT22;50278;47.796;11.968;2023-02-05T13:32:55;4.96;28.67
64032;DHT22;50278;47.796;11.968;2023-02-05T13:35:21;4.63;30.96
64032;DHT22;50278;47.796;11.968;2023-02-05T13:46:16;4.52;32.89
64032;DHT22;50278;47.796;11.968;2023-02-05T13:49:16;4.49;33.41
64032;DHT22;50278;47.796;11.968;2023-02-05T14:00:38;4.90;32.09
64032;DHT22;50278;47.796;11.968;2023-02-05T14:03:05;5.01;33.18
64032;DHT22;50278;47.796;11.968;2023-02-05T14:05:38;5.16;30.33
64032;DHT22;50278;47.796;11.968;2023-02-05T14:08:19;5.07;31.51
64032;DHT22;50278;47.796;11.968;2023-02-05T14:10:46;5.10;32.41
64032;DHT22;50278;47.796;11.968;2023-02-05T14:13:34;4.97;30.54
64032;DHT22;50278;47.796;11.968;2023-02-05T14:23:58;5.06;33.44
64032;DHT22;50278;47.796;11.968;2023-02-05T14:29:41;5.08;35.37
64032;DHT22;50278;47.796;11.968;2023-02-05T14:35:26;4.82;31.48
64032;DHT22;50278;47.796;11.968;2023-02-05T14:37:53;4.95;32.38
64032;DHT22;50278;47.796;11.968;2023-02-05T14:40:35;4.53;35.74
64032;DHT22;50278;47.796;11.968;2023-02-05T14:43:15;4.60;33.66
64032;DHT22;50278;47.796;11.968;2023-02-05T14:45:49;4.36;35.70
64032;DHT22;50278;47.796;11.968;2023-02-05T14:48:37;4.33;34.28
64032;DHT22;50278;47.796;11.968;2023-02-05T14:51:08;4.31;35.30
64032;DHT22;50278;47.796;11.968;2023-02-05T14:53:50;4.36;36.11
64032;DHT22;50278;47.796;11.968;2023-02-05T14:56:29;4.37;36.42
64032;DHT22;50278;47.796;11.968;2023-02-05T14:59:06;4.26;38.81
64032;DHT22;50278;47.796;11.968;2023-02-05T15:04:04;4.47;33.60
64032;DHT22;50278;47.796;11.968;2023-02-05T15:06:38;4.26;35.40
64032;DHT22;50278;47.796;11.968;2023-02-05T15:09:10;4.23;34.95
64032;DHT22;50278;47.796;11.968;2023-02-05T15:16:45;3.90;39.17
64032;DHT22;50278;47.796;11.968;2023-02-05T15:19:12;3.74;42.41
64032;DHT22;50278;47.796;11.968;2023-02-05T15:21:48;3.45;49.65
64032;DHT22;50278;47.796;11.968;2023-02-05T15:24:18;3.24;57.43
64032;DHT22;50278;47.796;11.968;2023-02-05T15:29:39;3.29;59.05
64032;DHT22;50278;47.796;11.968;2023-02-05T15:32:28;3.21;64.15
64032;DHT22;50278;47.796;11.968;2023-02-05T15:35:00;3.01;70.82
64032;DHT22;50278;47.796;11.968;2023-02-05T15:37:30;2.81;78.94
64032;DHT22;50278;47.796;11.968;2023-02-05T15:40:02;2.53;99.97
64032;DHT22;50278;47.796;11.968;2023-02-05T15:42:41;2.39;118.99
64032;DHT22;50278;47.796;11.968;2023-02-05T15:45:29;2.24;118.99
64032;DHT22;50278;47.796;11.968;2023-02-05T15:50:58;2.05;118.99
64032;DHT22;50278;47.796;11.968;2023-02-05T15:53:37;1.93;118.99
64032;DHT22;50278;47.796;11.968;2023-02-05T15:56:50;1.85;118.99
64032;DHT22;50278;47.796;11.968;2023-02-05T15:59:10;1.72;118.99
64032;DHT22;50278;47.796;11.968;2023-02-05T16:01:39;1.72;118.99
64032;DHT22;50278;47.796;11.968;2023-02-05T16:06:46;1.63;118.99
64032;DHT22;50278;47.796;11.968;2023-02-05T16:09:15;1.57;118.99
64032;DHT22;50278;47.796;11.968;2023-02-05T16:11:41;1.56;118.99
64032;DHT22;50278;47.796;11.968;2023-02-05T16:14:17;1.51;118.99
64032;DHT22;50278;47.796;11.968;2023-02-05T16:19:27;1.52;118.99
64032;DHT22;50278;47.796;11.968;2023-02-05T16:21:59;1.63;118.99
64032;DHT22;50278;47.796;11.968;2023-02-05T16:24:31;1.73;118.99
64032;DHT22;50278;47.796;11.968;2023-02-05T16:29:36;1.81;118.99
64032;DHT22;50278;47.796;11.968;2023-02-05T16:32:06;1.57;118.99
64032;DHT22;50278;47.796;11.968;2023-02-05T16:34:35;1.64;118.99
64032;DHT22;50278;47.796;11.968;2023-02-05T16:37:06;1.68;118.99
64032;DHT22;50278;47.796;11.968;2023-02-05T16:39:58;1.64;118.99
64032;DHT22;50278;47.796;11.968;2023-02-05T16:44:48;1.64;118.99
64032;DHT22;50278;47.796;11.968;2023-02-05T16:47:18;1.66;118.99
64032;DHT22;50278;47.796;11.968;2023-02-05T16:49:45;1.54;118.99
64032;DHT22;50278;47.796;11.968;2023-02-05T16:54:52;1.40;118.99
64032;DHT22;50278;47.796;11.968;2023-02-05T16:57:36;1.41;118.99
64032;DHT22;50278;47.796;11.968;2023-02-05T17:00:05;1.38;118.99
64032;DHT22;50278;47.796;11.968;2023-02-05T17:02:42;1.35;118.99
64032;DHT22;50278;47.796;11.968;2023-02-05T17:05:22;1.38;118.99
64032;DHT22;50278;47.796;11.968;2023-02-05T17:07:58;1.33;118.99
64032;DHT22;50278;47.796;11.968;2023-02-05T17:10:25;1.27;118.99
64032;DHT22;50278;47.796;11.968;2023-02-05T17:13:00;1.26;118.99
64032;DHT22;50278;47.796;11.968;2023-02-05T17:17:56;1.29;118.99
64032;DHT22;50278;47.796;11.968;2023-02-05T17:20:23;1.29;118.99
64032;DHT22;50278;47.796;11.968;2023-02-05T17:25:37;1.25;118.99
64032;DHT22;50278;47.796;11.968;2023-02-05T17:28:04;1.24;118.99
64032;DHT22;50278;47.796;11.968;2023-02-05T17:30:30;1.22;118.99
64032;DHT22;50278;47.796;11.968;2023-02-05T17:32:56;1.14;118.99
64032;DHT22;50278;47.796;11.968;2023-02-05T17:35:22;1.12;118.99
64032;DHT22;50278;47.796;11.968;2023-02-05T17:37:50;1.06;118.99
64032;DHT22;50278;47.796;11.968;2023-02-05T17:40:17;1.02;118.99
64032;DHT22;50278;47.796;11.968;2023-02-05T17:42:45;0.98;118.99
64032;DHT22;50278;47.796;11.968;2023-02-05T17:45:23;1.03;118.99
64032;DHT22;50278;47.796;11.968;2023-02-05T17:47:49;1.04;118.99
64032;DHT22;50278;47.796;11.968;2023-02-05T17:50:15;1.02;118.99
64032;DHT22;50278;47.796;11.968;2023-02-05T17:52:43;0.95;118.99
64032;DHT22;50278;47.796;11.968;2023-02-05T17:55:16;1.03;118.99
64032;DHT22;50278;47.796;11.968;2023-02-05T17:57:42;1.12;118.99
64032;DHT22;50278;47.796;11.968;2023-02-05T18:00:21;1.22;118.99
64032;DHT22;50278;47.796;11.968;2023-02-05T18:02:52;1.35;118.99
64032;DHT22;50278;47.796;11.968;2023-02-05T18:05:17;1.38;118.99
64032;DHT22;50278;47.796;11.968;2023-02-05T18:07:53;1.45;118.99
64032;DHT22;50278;47.796;11.968;2023-02-05T18:10:25;1.42;118.99
64032;DHT22;50278;47.796;11.968;2023-02-05T18:12:52;1.40;118.99